createdAt,value
2019-03-22T00:00:21.128Z,34.73
2019-03-22T00:03:19.248Z,36.20
2019-03-22T00:06:01.995Z,37.73
2019-03-22T00:08:36.266Z,35.80
2019-03-22T00:11:10.664Z,35.33
2019-03-22T00:13:44.454Z,34.53
2019-03-22T00:16:27.595Z,33.73
2019-03-22T00:19:03.636Z,34.03
2019-03-22T00:21:38.011Z,34.43
2019-03-22T00:24:20.497Z,33.93
2019-03-22T00:26:56.028Z,34.33
2019-03-22T00:29:40.482Z,35.90
2019-03-22T00:32:14.504Z,36.53
2019-03-22T00:34:49.639Z,35.00
2019-03-22T00:37:23.695Z,33.60
2019-03-22T00:40:07.280Z,33.17
2019-03-22T00:42:42.190Z,34.03
2019-03-22T00:45:16.608Z,36.23
2019-03-22T00:47:50.681Z,34.10
2019-03-22T00:50:33.251Z,35.50
2019-03-22T00:53:07.337Z,33.97
2019-03-22T00:55:51.614Z,34.00
2019-03-22T00:58:25.844Z,35.87
2019-03-22T01:01:00.451Z,34.63
2019-03-22T01:03:34.601Z,34.27
2019-03-22T01:06:09.304Z,36.07
2019-03-22T01:08:43.677Z,33.83
2019-03-22T01:11:26.687Z,34.47
2019-03-22T01:14:13.230Z,33.73
2019-03-22T01:17:01.637Z,32.57
2019-03-22T01:19:38.566Z,32.50
2019-03-22T01:22:22.330Z,35.63
2019-03-22T01:24:56.846Z,35.43
2019-03-22T01:27:41.073Z,32.50
2019-03-22T01:30:16.317Z,33.67
2019-03-22T01:32:58.980Z,33.83
2019-03-22T01:35:32.768Z,33.37
2019-03-22T01:38:16.235Z,33.93
2019-03-22T01:40:50.328Z,31.57
2019-03-22T01:43:24.267Z,35.40
2019-03-22T01:46:07.501Z,34.97
2019-03-22T01:48:51.300Z,34.33
2019-03-22T01:51:25.353Z,35.93
2019-03-22T01:54:08.135Z,33.20
2019-03-22T01:56:51.420Z,38.70
2019-03-22T01:59:25.077Z,36.37
2019-03-22T02:01:59.156Z,36.23
2019-03-22T02:04:33.108Z,35.53
2019-03-22T02:07:07.482Z,37.67
2019-03-22T02:09:41.891Z,38.07
2019-03-22T02:12:15.937Z,37.67
2019-03-22T02:14:59.355Z,37.53
2019-03-22T02:17:33.014Z,36.17
2019-03-22T02:20:07.216Z,36.13
2019-03-22T02:22:41.017Z,40.07
2019-03-22T02:25:24.647Z,39.20
2019-03-22T02:28:04.033Z,38.33
2019-03-22T02:30:44.105Z,37.93
2019-03-22T02:33:18.431Z,38.20
2019-03-22T02:35:53.203Z,37.73
2019-03-22T02:38:27.499Z,38.00
2019-03-22T02:41:19.054Z,38.40
2019-03-22T02:43:54.924Z,36.30
2019-03-22T02:46:29.249Z,37.10
2019-03-22T02:49:19.294Z,40.13
2019-03-22T02:51:54.405Z,40.73
2019-03-22T02:54:28.446Z,40.20
2019-03-22T02:57:11.935Z,39.73
2019-03-22T02:59:46.186Z,38.03
2019-03-22T03:02:21.875Z,38.00
2019-03-22T03:05:04.638Z,40.00
2019-03-22T03:07:47.802Z,40.13
2019-03-22T03:10:30.107Z,39.90
2019-03-22T03:13:03.851Z,40.47
2019-03-22T03:15:47.210Z,38.80
2019-03-22T03:18:20.891Z,38.73
2019-03-22T03:20:55.591Z,41.33
2019-03-22T03:23:45.072Z,40.07
2019-03-22T03:26:20.701Z,40.47
2019-03-22T03:28:54.654Z,39.40
2019-03-22T03:31:28.734Z,39.33
2019-03-22T03:34:11.395Z,39.93
2019-03-22T03:37:04.371Z,40.27
2019-03-22T03:39:48.618Z,38.83
2019-03-22T03:42:31.519Z,39.00
2019-03-22T03:45:31.035Z,38.40
2019-03-22T03:48:05.568Z,39.63
2019-03-22T03:50:54.410Z,39.97
2019-03-22T03:53:40.285Z,37.87
2019-03-22T03:56:14.019Z,38.70
2019-03-22T03:58:52.759Z,37.27
2019-03-22T04:01:22.863Z,41.93
2019-03-22T04:03:57.525Z,40.33
2019-03-22T04:06:39.999Z,39.57
2019-03-22T04:09:24.746Z,40.87
2019-03-22T04:12:11.778Z,40.10
2019-03-22T04:14:55.570Z,40.77
2019-03-22T04:17:28.926Z,40.43
2019-03-22T04:20:03.222Z,40.60
2019-03-22T04:22:45.755Z,41.00
2019-03-22T04:25:20.223Z,39.53
2019-03-22T04:27:54.307Z,39.93
2019-03-22T04:30:28.590Z,41.10
2019-03-22T04:33:11.429Z,39.40
2019-03-22T04:36:01.142Z,41.17
2019-03-22T04:38:35.271Z,41.47
2019-03-22T04:41:19.350Z,41.93
2019-03-22T04:43:54.390Z,40.17
2019-03-22T04:46:29.293Z,40.43
2019-03-22T04:49:03.766Z,41.70
2019-03-22T04:51:47.759Z,41.93
2019-03-22T04:54:21.880Z,40.90
2019-03-22T04:57:10.880Z,39.17
2019-03-22T04:59:49.275Z,39.30
2019-03-22T05:02:23.222Z,38.47
2019-03-22T05:04:59.616Z,38.67
2019-03-22T05:07:34.857Z,40.50
2019-03-22T05:10:11.816Z,38.83
2019-03-22T05:12:47.043Z,39.10
2019-03-22T05:15:25.405Z,39.37
2019-03-22T05:18:01.117Z,38.23
2019-03-22T05:20:36.517Z,38.17
2019-03-22T05:23:22.653Z,37.67
2019-03-22T05:26:13.507Z,36.80
2019-03-22T05:28:59.721Z,38.37
2019-03-22T05:32:00.774Z,38.87
2019-03-22T05:34:36.108Z,36.60
2019-03-22T05:37:16.708Z,35.73
2019-03-22T05:39:59.897Z,36.70
2019-03-22T05:42:33.973Z,36.27
2019-03-22T05:45:08.068Z,35.43
2019-03-22T05:47:42.247Z,37.40
2019-03-22T05:50:24.766Z,37.73
2019-03-22T05:52:59.065Z,39.10
2019-03-22T05:55:33.167Z,39.10
2019-03-22T05:58:09.287Z,40.47
2019-03-22T06:00:43.516Z,38.83
2019-03-22T06:03:18.768Z,39.67
2019-03-22T06:05:52.834Z,37.93
2019-03-22T06:08:36.949Z,44.23
2019-03-22T06:11:10.621Z,50.47
2019-03-22T06:13:49.822Z,49.27
2019-03-22T06:16:25.370Z,47.17
2019-03-22T06:19:02.831Z,47.97
2019-03-22T06:21:37.560Z,46.93
2019-03-22T06:24:11.253Z,262.70
2019-03-22T06:26:45.930Z,42.97
2019-03-22T06:29:20.798Z,42.77
2019-03-22T06:32:12.948Z,42.63
2019-03-22T06:34:47.130Z,38.00
2019-03-22T06:37:21.976Z,40.27
2019-03-22T06:39:55.985Z,39.07
2019-03-22T06:42:30.174Z,39.83
2019-03-22T06:45:13.339Z,39.33
2019-03-22T06:48:01.941Z,39.73
2019-03-22T06:50:38.442Z,40.13
2019-03-22T06:53:12.523Z,38.73
2019-03-22T06:55:56.495Z,41.47
2019-03-22T06:58:34.787Z,41.33
2019-03-22T07:01:09.861Z,41.03
2019-03-22T07:03:43.565Z,40.87
2019-03-22T07:06:18.399Z,40.47
2019-03-22T07:08:52.738Z,43.07
2019-03-22T07:11:26.384Z,39.93
2019-03-22T07:14:00.361Z,39.20
2019-03-22T07:16:49.765Z,41.57
2019-03-22T07:19:23.616Z,42.13
2019-03-22T07:21:57.973Z,41.40
2019-03-22T07:24:40.806Z,40.23
2019-03-22T07:27:24.229Z,40.73
2019-03-22T07:29:59.003Z,42.07
2019-03-22T07:32:41.689Z,41.80
2019-03-22T07:35:26.630Z,40.73
2019-03-22T07:38:09.087Z,39.23
2019-03-22T07:40:44.466Z,40.63
2019-03-22T07:43:32.736Z,41.03
2019-03-22T07:46:07.756Z,39.63
2019-03-22T07:48:42.490Z,41.53
2019-03-22T07:51:29.853Z,40.70
2019-03-22T07:54:22.091Z,42.83
2019-03-22T07:57:05.531Z,42.47
2019-03-22T07:59:39.837Z,43.80
2019-03-22T08:02:13.600Z,43.50
2019-03-22T08:04:58.115Z,43.17
2019-03-22T08:07:40.799Z,42.80
2019-03-22T08:10:25.677Z,44.03
2019-03-22T08:13:00.863Z,44.47
2019-03-22T08:15:34.932Z,45.37
2019-03-22T08:18:17.449Z,42.50
2019-03-22T08:21:01.136Z,44.90
2019-03-22T08:23:34.862Z,44.63
2019-03-22T08:26:09.549Z,46.10
2019-03-22T08:28:42.938Z,45.13
2019-03-22T08:31:25.901Z,46.50
2019-03-22T08:34:09.748Z,44.20
2019-03-22T08:36:54.310Z,43.77
2019-03-22T08:39:28.815Z,44.00
2019-03-22T08:42:02.475Z,43.73
2019-03-22T08:44:36.900Z,44.37
2019-03-22T08:47:19.642Z,45.17
2019-03-22T08:49:55.194Z,46.00
2019-03-22T08:52:37.774Z,45.80
2019-03-22T08:55:30.043Z,45.37
2019-03-22T08:58:20.152Z,44.70
2019-03-22T09:00:57.834Z,44.47
2019-03-22T09:03:30.591Z,44.97
2019-03-22T09:06:04.230Z,44.57
2019-03-22T09:08:38.002Z,45.40
2019-03-22T09:11:20.782Z,45.37
2019-03-22T09:14:04.568Z,44.53
2019-03-22T09:16:39.145Z,43.70
2019-03-22T09:19:21.653Z,45.93
2019-03-22T09:21:56.168Z,45.60
2019-03-22T09:24:38.985Z,46.00
2019-03-22T09:27:06.750Z,45.57
2019-03-22T09:29:41.242Z,45.97
2019-03-22T09:32:23.861Z,43.60
2019-03-22T09:35:07.324Z,44.90
2019-03-22T09:37:41.357Z,47.93
2019-03-22T09:40:24.919Z,45.43
2019-03-22T09:43:00.205Z,47.07
2019-03-22T09:45:43.265Z,46.97
2019-03-22T09:48:17.963Z,46.47
2019-03-22T09:51:02.881Z,48.17
2019-03-22T09:53:38.384Z,49.17
2019-03-22T09:56:13.232Z,44.53
2019-03-22T09:58:46.877Z,46.37
2019-03-22T10:01:24.010Z,47.33
2019-03-22T10:03:56.592Z,47.20
2019-03-22T10:06:30.238Z,48.90
2019-03-22T10:09:13.765Z,48.13
2019-03-22T10:11:48.501Z,48.87
2019-03-22T10:14:31.811Z,47.07
2019-03-22T10:17:05.667Z,47.77
2019-03-22T10:19:42.176Z,48.50
2019-03-22T10:22:25.768Z,46.47
2019-03-22T10:24:59.824Z,47.13
2019-03-22T10:27:43.026Z,47.90
2019-03-22T10:30:18.082Z,47.73
2019-03-22T10:33:00.824Z,45.37
2019-03-22T10:35:44.222Z,45.57
2019-03-22T10:38:30.662Z,44.87
2019-03-22T10:40:53.552Z,45.70
2019-03-22T10:43:27.562Z,46.63
2019-03-22T10:46:10.410Z,46.87
2019-03-22T10:48:59.807Z,46.63
2019-03-22T10:51:34.254Z,47.13
2019-03-22T10:54:18.347Z,46.37
2019-03-22T10:56:52.435Z,46.57
2019-03-22T10:59:35.904Z,46.53
2019-03-22T11:02:10.398Z,45.30
2019-03-22T11:04:54.176Z,46.67
2019-03-22T11:07:28.227Z,45.27
2019-03-22T11:10:02.573Z,45.40
2019-03-22T11:12:36.364Z,48.13
2019-03-22T11:15:10.785Z,44.30
2019-03-22T11:17:53.955Z,46.07
2019-03-22T11:20:37.060Z,43.60
2019-03-22T11:23:10.834Z,45.13
2019-03-22T11:25:44.482Z,42.93
2019-03-22T11:28:18.144Z,44.97
2019-03-22T11:30:52.015Z,44.83
2019-03-22T11:33:26.928Z,44.47
2019-03-22T11:36:01.345Z,45.03
2019-03-22T11:38:35.556Z,44.40
2019-03-22T11:41:09.572Z,43.00
2019-03-22T11:43:43.253Z,44.70
2019-03-22T11:46:17.796Z,41.43
2019-03-22T11:48:52.306Z,43.13
2019-03-22T11:51:26.004Z,41.63
2019-03-22T11:53:59.986Z,44.10
2019-03-22T11:56:33.903Z,44.73
2019-03-22T11:59:07.695Z,41.40
2019-03-22T12:01:41.994Z,41.50
2019-03-22T12:04:16.959Z,43.77
2019-03-22T12:06:50.605Z,41.30
2019-03-22T12:09:24.613Z,41.20
2019-03-22T12:12:07.606Z,40.87
2019-03-22T12:14:50.120Z,40.47
2019-03-22T12:17:23.812Z,39.37
2019-03-22T12:20:14.255Z,36.43
2019-03-22T12:23:04.259Z,35.90
2019-03-22T12:25:38.332Z,35.63
2019-03-22T12:28:27.428Z,38.03
2019-03-22T12:31:10.798Z,37.10
2019-03-22T12:33:44.454Z,35.50
2019-03-22T12:36:19.040Z,35.80
2019-03-22T12:39:03.460Z,33.03
2019-03-22T12:41:46.376Z,28.83
2019-03-22T12:44:29.315Z,30.90
2019-03-22T12:47:12.047Z,33.67
2019-03-22T12:49:54.681Z,34.53
2019-03-22T12:52:38.126Z,31.57
2019-03-22T12:55:12.542Z,27.03
2019-03-22T12:57:46.185Z,29.00
2019-03-22T13:00:21.783Z,28.20
2019-03-22T13:03:04.311Z,27.53
2019-03-22T13:05:38.021Z,28.57
2019-03-22T13:08:21.468Z,28.27
2019-03-22T13:10:55.126Z,26.70
2019-03-22T13:13:29.114Z,25.30
2019-03-22T13:16:03.866Z,26.67
2019-03-22T13:18:37.959Z,25.50
2019-03-22T13:21:12.129Z,20.77
2019-03-22T13:23:55.338Z,20.47
2019-03-22T13:26:38.335Z,23.73
2019-03-22T13:29:12.006Z,21.17
2019-03-22T13:31:47.590Z,22.30
2019-03-22T13:34:21.750Z,18.90
2019-03-22T13:37:10.878Z,18.93
2019-03-22T13:39:53.860Z,24.03
2019-03-22T13:42:39.059Z,22.40
2019-03-22T13:45:22.246Z,22.30
2019-03-22T13:47:55.986Z,21.10
2019-03-22T13:50:29.792Z,21.03
2019-03-22T13:53:03.476Z,18.87
2019-03-22T13:55:37.273Z,16.83
2019-03-22T13:58:12.435Z,16.53
2019-03-22T14:00:46.076Z,15.33
2019-03-22T14:03:19.882Z,15.87
2019-03-22T14:05:54.699Z,16.07
2019-03-22T14:08:28.372Z,15.63
2019-03-22T14:11:02.359Z,18.07
2019-03-22T14:13:36.604Z,13.30
2019-03-22T14:16:13.128Z,15.10
2019-03-22T14:18:55.966Z,16.50
2019-03-22T14:21:46.891Z,14.93
2019-03-22T14:24:21.060Z,15.17
2019-03-22T14:26:55.043Z,14.23
2019-03-22T14:29:37.856Z,11.30
2019-03-22T14:32:21.394Z,12.67
2019-03-22T14:34:55.801Z,11.60
2019-03-22T14:37:29.951Z,11.03
2019-03-22T14:40:04.196Z,11.10
2019-03-22T14:42:37.860Z,11.13
2019-03-22T14:45:12.420Z,11.60
2019-03-22T14:47:46.087Z,11.67
2019-03-22T14:50:20.987Z,12.87
2019-03-22T14:53:05.230Z,12.13
2019-03-22T14:55:48.184Z,14.43
2019-03-22T14:58:34.542Z,12.77
2019-03-22T15:01:24.022Z,13.50
2019-03-22T15:03:58.725Z,14.47
2019-03-22T15:06:43.347Z,14.27
2019-03-22T15:09:17.010Z,15.80
2019-03-22T15:11:50.649Z,16.67
2019-03-22T15:14:46.431Z,13.67
2019-03-22T15:17:48.965Z,13.17
2019-03-22T15:20:45.746Z,12.23
2019-03-22T15:23:40.067Z,14.33
2019-03-22T15:26:31.589Z,14.13
2019-03-22T15:29:36.720Z,14.30
2019-03-22T15:32:52.908Z,15.70
2019-03-22T15:35:53.032Z,14.33
2019-03-22T15:38:55.981Z,15.93
2019-03-22T15:41:52.836Z,14.37
2019-03-22T15:44:26.932Z,15.03
2019-03-22T15:47:00.882Z,13.53
2019-03-22T15:49:35.613Z,16.57
2019-03-22T15:52:09.443Z,16.30
2019-03-22T15:54:44.883Z,18.03
2019-03-22T15:57:19.292Z,17.80
2019-03-22T15:59:53.687Z,17.10
2019-03-22T16:02:27.717Z,16.60
2019-03-22T16:05:15.949Z,16.50
2019-03-22T16:08:01.015Z,17.90
2019-03-22T16:10:36.685Z,16.53
2019-03-22T16:13:12.391Z,17.07
2019-03-22T16:15:57.955Z,16.30
2019-03-22T16:18:31.604Z,16.63
2019-03-22T16:21:05.611Z,16.53
2019-03-22T16:23:48.959Z,16.20
2019-03-22T16:26:33.010Z,16.70
2019-03-22T16:29:17.853Z,17.57
2019-03-22T16:31:57.866Z,18.83
2019-03-22T16:34:41.852Z,18.90
2019-03-22T16:37:17.397Z,18.83
2019-03-22T16:40:04.600Z,17.60
2019-03-22T16:42:47.197Z,19.30
2019-03-22T16:45:40.154Z,17.63
2019-03-22T16:48:14.906Z,17.60
2019-03-22T16:51:04.717Z,16.97
2019-03-22T16:53:39.568Z,17.60
2019-03-22T16:56:12.894Z,15.43
2019-03-22T16:58:47.984Z,17.90
2019-03-22T17:01:21.958Z,17.83
2019-03-22T17:04:04.038Z,16.90
2019-03-22T17:06:47.579Z,15.77
2019-03-22T17:09:22.627Z,16.47
2019-03-22T17:12:06.363Z,16.87
2019-03-22T17:14:40.379Z,15.40
2019-03-22T17:17:23.072Z,15.67
2019-03-22T17:20:08.065Z,15.77
2019-03-22T17:22:41.923Z,15.50
2019-03-22T17:25:15.607Z,16.63
2019-03-22T17:27:50.083Z,15.60
2019-03-22T17:30:32.700Z,15.57
2019-03-22T17:33:07.972Z,15.50
2019-03-22T17:35:51.196Z,15.20
2019-03-22T17:38:38.177Z,16.87
2019-03-22T17:41:26.613Z,16.10
2019-03-22T17:44:10.880Z,15.90
2019-03-22T17:46:57.185Z,15.67
2019-03-22T17:49:47.802Z,15.67
2019-03-22T17:52:17.008Z,14.93
2019-03-22T17:55:02.436Z,14.77
2019-03-22T17:57:36.889Z,16.37
2019-03-22T18:00:23.859Z,16.30
2019-03-22T18:03:00.160Z,16.87
2019-03-22T18:05:35.167Z,16.17
2019-03-22T18:08:09.589Z,16.97
2019-03-22T18:10:44.232Z,17.90
2019-03-22T18:13:20.317Z,16.67
2019-03-22T18:16:02.998Z,16.40
2019-03-22T18:18:46.568Z,24.17
2019-03-22T18:21:21.742Z,26.80
2019-03-22T18:24:06.695Z,21.13
2019-03-22T18:26:41.963Z,16.10
2019-03-22T18:29:16.354Z,16.63
2019-03-22T18:31:58.826Z,15.93
2019-03-22T18:34:47.584Z,16.77
2019-03-22T18:37:32.471Z,17.03
2019-03-22T18:40:15.570Z,14.97
2019-03-22T18:42:50.568Z,15.73
2019-03-22T18:45:25.296Z,14.83
2019-03-22T18:47:59.264Z,15.40
2019-03-22T18:50:42.147Z,15.13
2019-03-22T18:53:25.582Z,14.10
2019-03-22T18:56:02.014Z,15.63
2019-03-22T18:58:35.781Z,15.93
2019-03-22T19:01:12.975Z,23.73
2019-03-22T19:03:47.680Z,62.53
2019-03-22T19:06:22.822Z,45.67
2019-03-22T19:08:56.566Z,33.27
2019-03-22T19:11:32.758Z,32.90
2019-03-22T19:14:16.865Z,23.53
2019-03-22T19:16:51.919Z,20.90
2019-03-22T19:19:25.711Z,19.50
2019-03-22T19:21:59.977Z,17.00
2019-03-22T19:24:34.724Z,17.17
2019-03-22T19:27:18.973Z,19.07
2019-03-22T19:29:52.929Z,18.73
2019-03-22T19:32:36.172Z,16.50
2019-03-22T19:35:19.101Z,17.47
2019-03-22T19:38:05.160Z,17.27
2019-03-22T19:40:47.986Z,18.43
2019-03-22T19:43:32.439Z,17.90
2019-03-22T19:46:14.923Z,18.03
2019-03-22T19:48:48.599Z,17.93
2019-03-22T19:51:32.832Z,17.20
2019-03-22T19:54:07.555Z,16.90
2019-03-22T19:56:41.724Z,15.50
2019-03-22T19:59:15.485Z,16.40
2019-03-22T20:02:04.615Z,18.50
2019-03-22T20:04:47.481Z,17.93
2019-03-22T20:07:31.146Z,17.87
2019-03-22T20:10:06.659Z,18.33
2019-03-22T20:12:41.352Z,18.80
2019-03-22T20:15:16.462Z,19.13
2019-03-22T20:17:51.004Z,19.27
2019-03-22T20:20:36.145Z,20.70
2019-03-22T20:23:18.597Z,21.47
2019-03-22T20:25:51.173Z,22.57
2019-03-22T20:28:25.502Z,21.40
2019-03-22T20:31:12.390Z,20.30
2019-03-22T20:33:46.062Z,20.70
2019-03-22T20:36:35.669Z,21.73
2019-03-22T20:39:11.626Z,20.90
2019-03-22T20:41:45.990Z,21.80
2019-03-22T20:44:20.402Z,22.37
2019-03-22T20:46:55.137Z,21.93
2019-03-22T20:49:29.587Z,21.57
2019-03-22T20:52:14.190Z,22.93
2019-03-22T20:55:00.581Z,23.03
2019-03-22T20:57:33.974Z,23.20
2019-03-22T21:00:17.215Z,25.50
2019-03-22T21:02:51.322Z,22.97
2019-03-22T21:05:27.083Z,22.47
2019-03-22T21:08:10.385Z,20.47
2019-03-22T21:10:45.539Z,19.83
2019-03-22T21:13:19.974Z,21.90
2019-03-22T21:15:54.178Z,21.37
2019-03-22T21:18:47.547Z,20.80
2019-03-22T21:21:36.698Z,21.27
2019-03-22T21:24:08.856Z,20.87
2019-03-22T21:26:44.263Z,19.77
2019-03-22T21:29:18.327Z,20.87
2019-03-22T21:32:02.456Z,21.60
2019-03-22T21:34:43.883Z,21.17
2019-03-22T21:37:17.750Z,21.70
2019-03-22T21:39:51.763Z,20.87
2019-03-22T21:42:26.401Z,22.50
2019-03-22T21:45:00.921Z,22.83
2019-03-22T21:47:40.070Z,23.40
2019-03-22T21:50:14.374Z,23.30
2019-03-22T21:52:49.494Z,24.27
2019-03-22T21:55:24.687Z,24.10
2019-03-22T21:57:58.752Z,23.97
2019-03-22T22:00:42.259Z,25.80
2019-03-22T22:03:20.435Z,24.17
2019-03-22T22:06:05.568Z,25.63
2019-03-22T22:08:41.591Z,24.63
2019-03-22T22:11:27.570Z,24.40
2019-03-22T22:14:03.309Z,25.90
2019-03-22T22:16:47.417Z,27.87
2019-03-22T22:19:22.461Z,26.50
2019-03-22T22:21:57.260Z,28.50
2019-03-22T22:24:33.727Z,28.70
2019-03-22T22:27:14.303Z,28.13
2019-03-22T22:29:50.111Z,25.27
2019-03-22T22:32:34.392Z,27.93
2019-03-22T22:35:08.430Z,27.60
2019-03-22T22:37:46.242Z,28.57
2019-03-22T22:40:19.901Z,29.43
2019-03-22T22:42:58.982Z,32.17
2019-03-22T22:45:48.123Z,29.77
2019-03-22T22:48:30.894Z,30.03
2019-03-22T22:51:16.101Z,31.50
2019-03-22T22:53:59.132Z,32.60
2019-03-22T22:56:48.009Z,33.27
2019-03-22T22:59:22.956Z,32.37
2019-03-22T23:02:03.598Z,32.23
2019-03-22T23:04:38.757Z,33.30
2019-03-22T23:07:12.492Z,33.37
2019-03-22T23:09:48.199Z,34.43
2019-03-22T23:12:32.538Z,38.27
2019-03-22T23:15:06.353Z,34.30
2019-03-22T23:17:49.803Z,37.23
2019-03-22T23:20:24.476Z,39.07
2019-03-22T23:23:08.060Z,36.47
2019-03-22T23:25:41.722Z,39.50
2019-03-22T23:28:25.215Z,38.30
2019-03-22T23:30:59.268Z,39.43
2019-03-22T23:33:35.749Z,36.67
2019-03-22T23:36:19.514Z,35.60
2019-03-22T23:38:47.240Z,33.50
2019-03-22T23:41:30.010Z,33.10
2019-03-22T23:44:17.499Z,33.43
2019-03-22T23:46:51.772Z,31.80
2019-03-22T23:49:26.285Z,30.50
2019-03-22T23:52:00.650Z,29.77
2019-03-22T23:54:45.441Z,27.80
2019-03-22T23:57:45.248Z,31.10
